createdAt,value
2019-01-03T00:00:56.626Z,72.51
2019-01-03T00:03:47.522Z,72.43
2019-01-03T00:06:34.478Z,72.03
2019-01-03T00:09:21.530Z,72.46
2019-01-03T00:12:16.043Z,73.12
2019-01-03T00:15:19.563Z,73.13
2019-01-03T00:18:07.770Z,72.54
2019-01-03T00:20:50.982Z,72.86
2019-01-03T00:23:50.334Z,71.91
2019-01-03T00:26:35.016Z,73.89
2019-01-03T00:29:38.440Z,72.24
2019-01-03T00:32:26.543Z,73.15
2019-01-03T00:35:12.636Z,73.14
2019-01-03T00:37:59.658Z,73.78
2019-01-03T00:40:39.071Z,72.81
2019-01-03T00:43:29.967Z,72.72
2019-01-03T00:46:33.433Z,73.16
2019-01-03T00:49:27.842Z,73.41
2019-01-03T00:52:08.808Z,73.81
2019-01-03T00:54:56.882Z,73.03
2019-01-03T00:57:39.825Z,74.45
2019-01-03T01:00:30.506Z,74.31
2019-01-03T01:03:21.717Z,74.77
2019-01-03T01:06:18.968Z,72.85
2019-01-03T01:09:05.793Z,74.08
2019-01-03T01:11:53.929Z,73.70
2019-01-03T01:14:42.021Z,73.37
2019-01-03T01:17:32.069Z,74.00
2019-01-03T01:20:18.859Z,74.32
2019-01-03T01:23:21.466Z,74.33
2019-01-03T01:26:15.876Z,74.49
2019-01-03T01:29:10.141Z,73.23
2019-01-03T01:31:58.295Z,72.97
2019-01-03T01:34:49.555Z,73.43
2019-01-03T01:37:46.621Z,74.15
2019-01-03T01:40:46.798Z,74.71
2019-01-03T01:43:47.235Z,75.27
2019-01-03T01:46:38.116Z,75.93
2019-01-03T01:49:32.110Z,76.05
2019-01-03T01:52:22.348Z,75.54
2019-01-03T01:55:25.590Z,76.86
2019-01-03T01:58:12.345Z,77.62
2019-01-03T02:01:02.000Z,76.81
2019-01-03T02:04:02.530Z,76.53
2019-01-03T02:06:53.232Z,77.38
2019-01-03T02:09:40.443Z,77.25
2019-01-03T02:12:27.730Z,78.10
2019-01-03T02:15:22.395Z,78.33
2019-01-03T02:18:09.771Z,78.15
2019-01-03T02:20:57.862Z,78.93
2019-01-03T02:23:40.054Z,78.92
2019-01-03T02:26:35.845Z,78.97
2019-01-03T02:29:39.107Z,79.40
2019-01-03T02:32:42.694Z,79.38
2019-01-03T02:35:28.327Z,79.17
2019-01-03T02:38:34.579Z,80.29
2019-01-03T02:41:30.824Z,80.20
2019-01-03T02:44:22.044Z,80.54
2019-01-03T02:47:24.618Z,79.89
2019-01-03T02:50:12.757Z,80.65
2019-01-03T02:52:59.889Z,81.24
2019-01-03T02:55:42.579Z,81.28
2019-01-03T02:58:26.551Z,81.52
2019-01-03T03:01:13.316Z,81.57
2019-01-03T03:04:04.500Z,81.20
2019-01-03T03:06:49.818Z,82.43
2019-01-03T03:09:37.984Z,82.84
2019-01-03T03:12:23.851Z,82.58
2019-01-03T03:15:10.829Z,82.15
2019-01-03T03:17:50.819Z,82.40
2019-01-03T03:20:41.791Z,82.32
2019-01-03T03:23:26.921Z,82.74
2019-01-03T03:26:13.910Z,82.53
2019-01-03T03:29:02.171Z,82.84
2019-01-03T03:31:49.061Z,82.18
2019-01-03T03:34:40.186Z,82.61
2019-01-03T03:37:30.559Z,82.18
2019-01-03T03:40:30.955Z,82.57
2019-01-03T03:43:32.062Z,83.00
2019-01-03T03:46:12.189Z,83.70
2019-01-03T03:49:00.291Z,83.19
2019-01-03T03:52:04.645Z,83.33
2019-01-03T03:54:51.318Z,83.61
2019-01-03T03:57:38.488Z,83.05
2019-01-03T04:00:29.429Z,83.15
2019-01-03T04:03:35.915Z,83.13
2019-01-03T04:06:22.936Z,83.32
2019-01-03T04:09:29.311Z,84.13
2019-01-03T04:12:13.882Z,84.60
2019-01-03T04:15:11.032Z,83.64
2019-01-03T04:17:53.869Z,83.63
2019-01-03T04:20:44.861Z,83.35
2019-01-03T04:23:27.424Z,84.04
2019-01-03T04:26:15.543Z,84.28
2019-01-03T04:29:09.879Z,84.52
2019-01-03T04:31:58.794Z,84.18
2019-01-03T04:34:59.255Z,84.40
2019-01-03T04:37:48.136Z,84.61
2019-01-03T04:40:35.383Z,83.96
2019-01-03T04:43:27.005Z,83.71
2019-01-03T04:46:17.092Z,84.25
2019-01-03T04:49:00.411Z,85.37
2019-01-03T04:51:47.411Z,85.31
2019-01-03T04:54:34.420Z,85.74
2019-01-03T04:57:21.452Z,85.91
2019-01-03T05:00:18.814Z,85.47
2019-01-03T05:03:05.635Z,83.79
2019-01-03T05:05:53.791Z,84.24
2019-01-03T05:08:38.055Z,84.76
2019-01-03T05:11:25.233Z,84.30
2019-01-03T05:14:12.365Z,83.47
2019-01-03T05:16:59.323Z,83.63
2019-01-03T05:19:46.216Z,83.37
2019-01-03T05:22:40.563Z,82.85
2019-01-03T05:25:27.340Z,83.15
2019-01-03T05:28:27.559Z,83.49
2019-01-03T05:31:19.015Z,83.85
2019-01-03T05:34:04.574Z,82.97
2019-01-03T05:37:01.537Z,82.29
2019-01-03T05:43:31.171Z,82.62
2019-01-03T05:46:33.708Z,82.62
2019-01-03T05:49:40.779Z,83.45
2019-01-03T05:52:47.868Z,82.66
2019-01-03T05:55:54.979Z,82.96
2019-01-03T05:59:02.041Z,83.18
2019-01-03T06:02:09.194Z,83.28
2019-01-03T06:04:57.292Z,83.79
2019-01-03T06:08:04.515Z,84.17
2019-01-03T06:11:11.653Z,83.33
2019-01-03T06:14:18.727Z,83.41
2019-01-03T06:17:25.824Z,82.97
2019-01-03T06:20:32.917Z,82.03
2019-01-03T06:23:40.031Z,82.02
2019-01-03T06:26:47.132Z,82.53
2019-01-03T06:29:54.193Z,82.05
2019-01-03T06:33:01.307Z,82.16
2019-01-03T06:36:08.804Z,82.65
2019-01-03T06:39:16.253Z,82.27
2019-01-03T06:42:23.346Z,82.30
2019-01-03T06:45:30.431Z,82.34
2019-01-03T06:48:37.526Z,83.37
2019-01-03T06:51:44.633Z,83.29
2019-01-03T06:54:51.713Z,83.51
2019-01-03T06:57:50.558Z,84.21
2019-01-03T07:00:57.626Z,84.10
2019-01-03T07:03:46.737Z,84.84
2019-01-03T07:09:37.010Z,85.10
2019-01-03T07:12:25.103Z,85.96
2019-01-03T07:15:13.164Z,85.46
2019-01-03T07:18:20.293Z,85.79
2019-01-03T07:21:08.404Z,86.12
2019-01-03T07:24:15.566Z,86.39
2019-01-03T07:27:22.688Z,87.11
2019-01-03T07:30:04.762Z,87.28
2019-01-03T07:33:08.232Z,87.25
2019-01-03T07:36:15.581Z,87.62
2019-01-03T07:39:22.704Z,87.81
2019-01-03T07:48:39.442Z,89.07
2019-01-03T07:51:46.512Z,89.23
2019-01-03T07:54:53.703Z,88.79
2019-01-03T07:58:00.809Z,88.79
2019-01-03T08:01:07.969Z,88.65
2019-01-03T08:04:15.102Z,88.55
2019-01-03T08:07:03.310Z,88.74
2019-01-03T08:09:51.374Z,88.27
2019-01-03T08:12:58.584Z,88.08
2019-01-03T08:16:05.686Z,88.48
2019-01-03T08:19:12.747Z,88.56
2019-01-03T08:22:19.888Z,89.19
2019-01-03T08:25:26.957Z,89.78
2019-01-03T08:28:34.048Z,89.83
2019-01-03T08:31:41.146Z,89.65
2019-01-03T08:34:48.232Z,89.98
2019-01-03T08:37:55.328Z,90.05
2019-01-03T08:41:02.409Z,90.36
2019-01-03T08:43:50.497Z,90.60
2019-01-03T08:46:57.581Z,91.88
2019-01-03T08:50:04.692Z,92.21
2019-01-03T08:53:11.851Z,92.77
2019-01-03T08:55:59.916Z,92.97
2019-01-03T08:59:04.810Z,93.30
2019-01-03T09:02:11.925Z,93.78
2019-01-03T09:05:19.083Z,93.44
2019-01-03T09:08:26.183Z,94.39
2019-01-03T09:11:33.259Z,95.21
2019-01-03T09:14:40.388Z,95.88
2019-01-03T09:17:47.483Z,95.48
2019-01-03T09:20:54.601Z,95.32
2019-01-03T09:24:01.745Z,96.13
2019-01-03T09:27:12.381Z,96.56
2019-01-03T09:30:17.642Z,97.01
2019-01-03T09:33:24.704Z,96.63
2019-01-03T09:39:58.940Z,95.83
2019-01-03T09:42:47.021Z,95.49
2019-01-03T09:45:16.168Z,96.98
2019-01-03T09:48:04.391Z,98.27
2019-01-03T09:50:52.479Z,98.92
2019-01-03T09:53:40.709Z,99.00
2019-01-03T09:56:09.998Z,98.83
2019-01-03T09:58:58.156Z,97.77
2019-01-03T10:01:46.635Z,97.39
2019-01-03T10:07:22.991Z,96.60
2019-01-03T10:10:11.222Z,95.96
2019-01-03T10:12:59.454Z,96.06
2019-01-03T10:15:28.769Z,95.32
2019-01-03T10:18:21.170Z,94.74
2019-01-03T10:21:10.407Z,94.07
2019-01-03T10:23:58.629Z,94.69
2019-01-03T10:26:46.820Z,94.62
2019-01-03T10:29:16.190Z,94.27
2019-01-03T10:32:04.412Z,94.72
2019-01-03T10:34:52.518Z,94.69
2019-01-03T10:37:21.655Z,94.58
2019-01-03T10:40:09.842Z,93.81
2019-01-03T10:45:46.110Z,92.61
2019-01-03T10:48:15.347Z,92.93
2019-01-03T10:50:44.577Z,93.05
2019-01-03T10:53:32.707Z,93.35
2019-01-03T10:56:01.881Z,93.37
2019-01-03T10:58:31.325Z,93.23
2019-01-03T11:01:00.762Z,92.52
2019-01-03T11:03:29.885Z,92.95
2019-01-03T11:06:18.106Z,92.68
2019-01-03T11:08:47.259Z,92.51
2019-01-03T11:11:16.380Z,91.78
2019-01-03T11:13:45.570Z,92.21
2019-01-03T11:16:14.778Z,92.41
2019-01-03T11:18:43.949Z,92.39
2019-01-03T11:21:13.083Z,91.78
2019-01-03T11:23:42.530Z,91.24
2019-01-03T11:26:11.751Z,91.09
2019-01-03T11:28:40.997Z,90.44
2019-01-03T11:31:10.230Z,90.63
2019-01-03T11:33:39.522Z,90.20
2019-01-03T11:36:27.629Z,89.23
2019-01-03T11:39:15.841Z,89.53
2019-01-03T11:41:44.859Z,89.72
2019-01-03T11:44:33.057Z,89.51
2019-01-03T11:47:21.161Z,89.20
2019-01-03T11:50:09.353Z,89.76
2019-01-03T11:56:28.327Z,89.48
2019-01-03T12:01:51.648Z,88.67
2019-01-03T12:05:00.219Z,88.96
2019-01-03T12:07:29.472Z,89.01
2019-01-03T12:10:17.655Z,89.12
2019-01-03T12:13:05.820Z,88.54
2019-01-03T12:15:46.838Z,89.20
2019-01-03T12:18:35.087Z,89.54
2019-01-03T12:21:23.225Z,89.74
2019-01-03T12:23:52.434Z,90.21
2019-01-03T12:26:40.579Z,90.34
2019-01-03T12:29:09.798Z,90.80
2019-01-03T12:31:58.089Z,90.72
2019-01-03T12:37:34.507Z,90.89
2019-01-03T12:40:03.848Z,91.32
2019-01-03T12:42:51.953Z,91.87
2019-01-03T12:45:21.080Z,91.28
2019-01-03T12:48:09.198Z,91.25
2019-01-03T12:50:57.349Z,90.22
2019-01-03T12:53:45.674Z,90.79
2019-01-03T12:56:33.958Z,90.34
2019-01-03T12:59:03.088Z,90.48
2019-01-03T13:01:51.207Z,90.39
2019-01-03T13:04:39.610Z,90.89
2019-01-03T13:07:09.083Z,91.10
2019-01-03T13:09:57.356Z,90.16
2019-01-03T13:12:37.878Z,90.04
2019-01-03T13:15:46.949Z,90.71
2019-01-03T13:18:16.245Z,90.63
2019-01-03T13:21:04.351Z,90.60
2019-01-03T13:23:33.854Z,90.74
2019-01-03T13:26:03.308Z,90.38
2019-01-03T13:29:12.077Z,90.69
2019-01-03T13:31:41.249Z,90.81
2019-01-03T13:34:29.506Z,90.85
2019-01-03T13:37:17.750Z,91.10
2019-01-03T13:40:26.394Z,90.62
2019-01-03T13:43:14.536Z,90.88
2019-01-03T13:45:43.671Z,90.94
2019-01-03T13:48:13.143Z,91.42
2019-01-03T13:51:21.754Z,91.50
2019-01-03T13:53:51.306Z,91.74
2019-01-03T13:56:39.564Z,92.42
2019-01-03T13:59:27.598Z,92.06
2019-01-03T14:01:56.726Z,92.58
2019-01-03T14:04:44.880Z,93.20
2019-01-03T14:07:33.078Z,93.14
2019-01-03T14:10:02.314Z,93.90
2019-01-03T14:12:50.496Z,93.83
2019-01-03T14:15:19.614Z,93.82
2019-01-03T14:18:07.889Z,93.97
2019-01-03T14:21:16.495Z,91.78
2019-01-03T14:24:04.675Z,91.39
2019-01-03T14:26:52.848Z,92.90
2019-01-03T14:29:41.049Z,93.72
2019-01-03T14:32:10.219Z,94.13
2019-01-03T14:34:58.338Z,94.74
2019-01-03T14:37:27.473Z,94.70
2019-01-03T14:43:03.761Z,94.97
2019-01-03T14:45:51.890Z,95.03
2019-01-03T14:48:40.092Z,95.33
2019-01-03T14:51:28.258Z,95.38
2019-01-03T14:54:56.240Z,95.27
2019-01-03T15:04:09.184Z,94.61
2019-01-03T15:10:38.768Z,95.54
2019-01-03T15:13:12.294Z,95.94
2019-01-03T15:16:03.876Z,95.78
2019-01-03T15:19:28.213Z,95.74
2019-01-03T15:25:54.423Z,96.07
2019-01-03T15:38:25.072Z,96.74
2019-01-03T15:48:04.032Z,96.80
2019-01-03T15:51:13.541Z,97.10
2019-01-03T15:53:45.730Z,97.03
2019-01-03T15:56:40.393Z,97.02
2019-01-03T15:59:13.688Z,97.29
2019-01-03T16:05:36.909Z,97.26
2019-01-03T16:07:56.467Z,97.35
2019-01-03T16:10:33.199Z,96.96
2019-01-03T16:13:03.651Z,97.16
2019-01-03T16:22:00.033Z,97.37
2019-01-03T16:24:36.423Z,97.47
2019-01-03T16:27:49.829Z,97.75
2019-01-03T16:31:00.077Z,97.81
2019-01-03T16:34:14.590Z,97.43
2019-01-03T16:37:14.501Z,97.51
2019-01-03T16:40:24.623Z,97.78
2019-01-03T16:50:25.118Z,97.87
2019-01-03T16:53:08.659Z,98.30
2019-01-03T16:55:56.811Z,98.17
2019-01-03T16:58:46.739Z,97.80
2019-01-03T17:01:34.856Z,97.27
2019-01-03T17:04:23.082Z,97.07
2019-01-03T17:07:11.384Z,97.05
2019-01-03T17:10:10.299Z,96.83
2019-01-03T17:13:30.426Z,96.83
2019-01-03T17:22:38.068Z,97.49
2019-01-03T17:29:07.591Z,98.05
2019-01-03T17:32:25.919Z,98.23
2019-01-03T17:38:11.710Z,98.45
2019-01-03T17:41:15.540Z,98.30
2019-01-03T17:43:53.257Z,98.45
2019-01-03T17:46:41.388Z,98.61
2019-01-03T17:49:29.703Z,98.46
2019-01-03T17:52:17.877Z,98.49
2019-01-03T17:55:07.173Z,98.64
2019-01-03T17:58:15.920Z,98.64
2019-01-03T18:00:46.681Z,98.97
2019-01-03T18:03:34.847Z,99.24
2019-01-03T18:06:04.123Z,99.34
2019-01-03T18:08:52.279Z,99.44
2019-01-03T18:11:40.482Z,99.43
2019-01-03T18:14:28.679Z,99.64
2019-01-03T18:16:57.830Z,99.75
2019-01-03T18:19:46.040Z,99.56
2019-01-03T18:25:03.377Z,99.44
2019-01-03T18:27:51.501Z,99.22
2019-01-03T18:30:20.641Z,99.12
2019-01-03T18:32:49.807Z,99.04
2019-01-03T18:35:19.005Z,99.20
2019-01-03T18:37:48.146Z,99.19
2019-01-03T18:40:36.718Z,99.02
2019-01-03T18:43:06.262Z,98.75
2019-01-03T18:45:54.435Z,98.50
2019-01-03T18:48:42.646Z,98.65
2019-01-03T18:51:11.829Z,98.63
2019-01-03T18:53:41.001Z,98.99
2019-01-03T18:56:29.164Z,99.26
2019-01-03T18:58:58.331Z,99.32
2019-01-03T19:01:27.598Z,99.64
2019-01-03T19:04:36.188Z,99.78
2019-01-03T19:07:05.694Z,99.98
2019-01-03T19:09:53.875Z,100.00
2019-01-03T19:15:30.194Z,100.00
2019-01-03T19:18:18.376Z,100.00
2019-01-03T19:21:06.552Z,100.00
2019-01-03T19:24:15.203Z,100.00
2019-01-03T19:26:44.363Z,100.00
2019-01-03T19:29:32.559Z,100.00
2019-01-03T19:32:13.341Z,100.00
2019-01-03T19:35:01.553Z,100.00
2019-01-03T19:37:49.744Z,100.00
2019-01-03T19:40:37.903Z,100.00
2019-01-03T19:46:00.714Z,100.00
2019-01-03T19:48:29.935Z,100.00
2019-01-03T19:50:59.098Z,100.00
2019-01-03T19:53:28.356Z,100.00
2019-01-03T19:55:57.492Z,99.86
2019-01-03T19:58:26.670Z,99.94
2019-01-03T20:00:55.843Z,99.95
2019-01-03T20:03:25.016Z,99.99
2019-01-03T20:05:54.157Z,99.96
2019-01-03T20:08:23.385Z,99.92
2019-01-03T20:10:52.568Z,99.90
2019-01-03T20:13:21.801Z,99.89
2019-01-03T20:15:51.003Z,99.55
2019-01-03T20:18:20.205Z,99.40
2019-01-03T20:20:52.922Z,99.59
2019-01-03T20:23:39.526Z,99.65
2019-01-03T20:29:16.296Z,99.40
2019-01-03T20:32:04.564Z,99.68
2019-01-03T20:34:33.733Z,100.00
2019-01-03T20:37:21.915Z,99.84
2019-01-03T20:40:29.385Z,99.64
2019-01-03T20:43:17.684Z,99.43
2019-01-03T20:46:05.858Z,99.42
2019-01-03T20:48:54.073Z,99.64
2019-01-03T20:51:42.209Z,99.50
2019-01-03T20:54:30.412Z,99.13
2019-01-03T20:57:18.626Z,99.37
2019-01-03T21:00:06.770Z,99.62
2019-01-03T21:02:55.351Z,99.84
2019-01-03T21:08:32.061Z,99.61
2019-01-03T21:14:27.479Z,99.57
2019-01-03T21:23:16.446Z,100.00
2019-01-03T21:25:45.625Z,99.93
2019-01-03T21:28:33.755Z,99.56
2019-01-03T21:31:21.961Z,99.55
2019-01-03T21:34:10.215Z,99.54
2019-01-03T21:37:18.931Z,99.13
2019-01-03T21:42:41.886Z,98.42
2019-01-03T21:45:11.035Z,98.84
2019-01-03T21:47:59.453Z,98.99
2019-01-03T21:50:28.610Z,98.97
2019-01-03T21:53:16.829Z,98.85
2019-01-03T21:55:45.978Z,98.75
2019-01-03T21:58:34.129Z,98.50
2019-01-03T22:01:22.329Z,98.52
2019-01-03T22:04:10.510Z,98.68
2019-01-03T22:06:58.685Z,98.29
2019-01-03T22:09:46.917Z,98.23
2019-01-03T22:12:35.018Z,97.80
2019-01-03T22:15:04.231Z,97.77
2019-01-03T22:17:52.382Z,97.81
2019-01-03T22:20:40.553Z,97.64
2019-01-03T22:26:03.799Z,97.53
2019-01-03T22:28:51.885Z,97.50
2019-01-03T22:31:40.133Z,97.47
2019-01-03T22:34:09.361Z,97.50
2019-01-03T22:36:57.536Z,97.51
2019-01-03T22:39:45.718Z,97.22
2019-01-03T22:42:14.918Z,96.89
2019-01-03T22:47:51.210Z,96.46
2019-01-03T22:50:20.285Z,96.49
2019-01-03T22:55:56.887Z,96.04
2019-01-03T22:58:26.021Z,96.25
2019-01-03T23:01:36.104Z,96.61
2019-01-03T23:04:24.174Z,96.30
2019-01-03T23:07:12.271Z,96.38
2019-01-03T23:09:41.443Z,96.84
2019-01-03T23:12:10.692Z,96.02
2019-01-03T23:18:05.943Z,96.07
2019-01-03T23:23:42.218Z,96.00
2019-01-03T23:26:11.408Z,96.54
2019-01-03T23:28:59.926Z,98.03
2019-01-03T23:31:48.042Z,98.20
2019-01-03T23:34:36.149Z,97.49
2019-01-03T23:37:24.250Z,98.00
2019-01-03T23:40:12.411Z,98.57
2019-01-03T23:43:00.470Z,99.21
2019-01-03T23:45:30.321Z,99.17
2019-01-03T23:48:19.278Z,99.59
2019-01-03T23:51:07.507Z,100.00
2019-01-03T23:56:43.879Z,100.00
2019-01-03T23:59:31.958Z,100.00
